createdAt,value
2023-05-12T00:01:56.733Z,3.30
2023-05-12T00:06:59.389Z,4.10
2023-05-12T00:12:02.525Z,4.00
2023-05-12T00:17:06.633Z,3.70
2023-05-12T00:22:11.346Z,3.80
2023-05-12T00:27:14.637Z,19.50
2023-05-12T00:32:17.294Z,10.90
2023-05-12T00:37:20.331Z,5.70
2023-05-12T00:42:22.935Z,4.00
2023-05-12T00:47:25.885Z,3.90
2023-05-12T00:52:28.721Z,3.90
2023-05-12T00:57:33.849Z,3.70
2023-05-12T01:02:37.112Z,4.20
2023-05-12T01:07:40.404Z,4.00
2023-05-12T01:12:42.974Z,4.20
2023-05-12T01:17:54.300Z,3.80
2023-05-12T01:22:59.376Z,3.80
2023-05-12T01:28:03.528Z,4.50
2023-05-12T01:33:06.252Z,4.60
2023-05-12T01:38:08.906Z,3.90
2023-05-12T01:43:11.470Z,3.90
2023-05-12T01:48:14.465Z,3.80
2023-05-12T01:53:17.016Z,3.80
2023-05-12T01:58:20.478Z,3.90
2023-05-12T02:03:23.375Z,4.00
2023-05-12T02:08:26.438Z,4.40
2023-05-12T02:13:29.293Z,3.60
2023-05-12T02:18:31.963Z,3.20
2023-05-12T02:23:34.665Z,3.20
2023-05-12T02:28:37.641Z,3.10
2023-05-12T02:33:40.261Z,3.10
2023-05-12T02:38:44.114Z,3.60
2023-05-12T02:43:46.648Z,33.20
2023-05-12T02:48:49.210Z,6.70
2023-05-12T02:53:51.852Z,4.30
2023-05-12T02:58:54.453Z,3.70
2023-05-12T03:03:57.051Z,4.80
2023-05-12T03:08:59.852Z,5.00
2023-05-12T03:14:02.418Z,9.80
2023-05-12T03:19:05.353Z,5.30
2023-05-12T03:24:08.681Z,4.40
2023-05-12T03:29:11.279Z,4.20
2023-05-12T03:34:13.806Z,6.60
2023-05-12T03:39:16.375Z,6.30
2023-05-12T03:44:19.007Z,4.60
2023-05-12T03:49:21.765Z,5.50
2023-05-12T03:54:24.616Z,5.60
2023-05-12T03:59:31.048Z,6.10
2023-05-12T04:04:33.567Z,6.10
2023-05-12T04:09:36.241Z,11.40
2023-05-12T04:14:43.160Z,7.00
2023-05-12T04:19:46.778Z,6.20
2023-05-12T04:24:49.660Z,5.90
2023-05-12T04:29:52.249Z,10.40
2023-05-12T04:34:56.592Z,6.70
2023-05-12T04:39:59.138Z,7.00
2023-05-12T04:45:01.990Z,6.20
2023-05-12T04:50:05.784Z,5.30
2023-05-12T04:55:09.452Z,7.10
2023-05-12T05:00:13.135Z,10.90
2023-05-12T05:05:15.948Z,6.30
2023-05-12T05:10:18.553Z,5.60
2023-05-12T05:15:21.767Z,6.90
2023-05-12T05:20:28.773Z,5.70
2023-05-12T05:25:31.870Z,5.40
2023-05-12T05:30:34.468Z,5.90
2023-05-12T05:35:37.308Z,5.40
2023-05-12T05:40:52.314Z,5.60
2023-05-12T05:45:58.222Z,5.90
2023-05-12T05:51:00.785Z,5.30
2023-05-12T05:56:05.380Z,4.70
2023-05-12T06:01:08.110Z,5.10
2023-05-12T06:06:10.828Z,4.60
2023-05-12T06:11:13.757Z,5.00
2023-05-12T06:16:17.259Z,4.30
2023-05-12T06:21:19.985Z,4.20
2023-05-12T06:26:22.622Z,4.80
2023-05-12T06:31:25.251Z,5.00
2023-05-12T06:36:28.895Z,4.20
2023-05-12T06:41:33.615Z,4.10
2023-05-12T06:46:36.423Z,4.30
2023-05-12T06:51:39.185Z,4.10
2023-05-12T06:56:41.782Z,3.80
2023-05-12T07:01:44.454Z,4.80
2023-05-12T07:06:47.163Z,3.80
2023-05-12T07:11:49.902Z,8.20
2023-05-12T07:16:52.612Z,4.50
2023-05-12T07:21:55.418Z,4.40
2023-05-12T07:26:58.445Z,10.70
2023-05-12T07:32:01.056Z,20.20
2023-05-12T07:37:04.354Z,4.80
2023-05-12T07:42:07.252Z,3.80
2023-05-12T07:47:10.014Z,3.90
2023-05-12T07:52:12.787Z,4.40
2023-05-12T07:57:15.660Z,4.10
2023-05-12T08:02:18.457Z,4.10
2023-05-12T08:07:21.372Z,3.50
2023-05-12T08:12:24.374Z,7.80
2023-05-12T08:17:29.159Z,31.60
2023-05-12T08:22:32.466Z,10.90
2023-05-12T08:27:35.005Z,5.50
2023-05-12T08:32:37.996Z,3.80
2023-05-12T08:37:40.658Z,3.60
2023-05-12T08:42:55.858Z,3.00
2023-05-12T08:47:59.903Z,3.60
2023-05-12T08:53:05.725Z,3.70
2023-05-12T08:58:09.682Z,3.40
2023-05-12T09:03:15.295Z,3.00
2023-05-12T09:08:18.464Z,3.10
2023-05-12T09:13:36.546Z,3.30
2023-05-12T09:18:58.770Z,2.70
2023-05-12T09:24:08.942Z,2.70
2023-05-12T09:29:20.758Z,3.20
2023-05-12T09:34:37.451Z,3.10
2023-05-12T09:39:40.613Z,3.60
2023-05-12T09:44:43.593Z,3.10
2023-05-12T09:49:52.199Z,3.00
2023-05-12T09:54:54.880Z,3.50
2023-05-12T09:59:57.575Z,3.10
2023-05-12T10:05:06.729Z,3.20
2023-05-12T10:10:16.199Z,3.10
2023-05-12T10:15:20.572Z,3.30
2023-05-12T10:20:24.908Z,3.60
2023-05-12T10:25:29.159Z,3.10
2023-05-12T10:30:32.770Z,2.60
2023-05-12T10:35:38.197Z,3.20
2023-05-12T10:41:01.244Z,3.00
2023-05-12T10:46:13.408Z,3.00
2023-05-12T10:51:43.464Z,2.50
2023-05-12T10:56:46.862Z,2.70
2023-05-12T11:02:26.192Z,2.80
2023-05-12T11:07:35.418Z,3.00
2023-05-12T11:12:38.509Z,3.00
2023-05-12T11:17:41.499Z,2.90
2023-05-12T11:22:44.285Z,2.80
2023-05-12T11:27:50.687Z,2.70
2023-05-12T11:33:03.781Z,3.10
2023-05-12T11:38:17.187Z,2.50
2023-05-12T11:43:24.654Z,2.60
2023-05-12T11:48:36.094Z,1.70
2023-05-12T11:53:41.145Z,2.90
2023-05-12T11:58:58.810Z,2.80
2023-05-12T12:04:01.564Z,3.00
2023-05-12T12:09:04.316Z,3.20
2023-05-12T12:14:08.557Z,2.90
2023-05-12T12:19:11.272Z,2.80
2023-05-12T12:24:14.278Z,3.00
2023-05-12T12:29:17.872Z,3.10
2023-05-12T12:34:20.587Z,3.00
2023-05-12T12:39:23.391Z,3.00
2023-05-12T12:44:26.154Z,2.90
2023-05-12T12:49:28.936Z,3.10
2023-05-12T12:54:31.563Z,2.40
2023-05-12T12:59:34.098Z,2.60
2023-05-12T13:04:37.009Z,3.30
2023-05-12T13:09:39.623Z,3.00
2023-05-12T13:14:42.225Z,3.00
2023-05-12T13:19:44.788Z,3.30
2023-05-12T13:24:48.014Z,2.60
2023-05-12T13:29:50.593Z,2.50
2023-05-12T13:34:53.473Z,2.70
2023-05-12T13:39:56.369Z,2.50
2023-05-12T13:44:59.027Z,2.70
2023-05-12T13:50:01.883Z,3.10
2023-05-12T13:55:05.428Z,2.80
2023-05-12T14:00:09.126Z,2.60
2023-05-12T14:05:12.044Z,3.10
2023-05-12T14:10:15.197Z,3.00
2023-05-12T14:20:23.292Z,2.50
2023-05-12T14:25:26.187Z,2.90
2023-05-12T14:30:29.254Z,2.30
2023-05-12T14:35:32.612Z,2.50
2023-05-12T14:40:35.231Z,2.80
2023-05-12T14:45:38.289Z,2.40
2023-05-12T14:50:42.809Z,2.40
2023-05-12T14:55:45.716Z,2.80
2023-05-12T15:00:51.256Z,2.50
2023-05-12T15:06:05.510Z,2.70
2023-05-12T15:11:10.467Z,2.90
2023-05-12T15:16:13.584Z,2.70
2023-05-12T15:21:17.471Z,2.80
2023-05-12T15:26:32.790Z,2.70
2023-05-12T15:31:37.515Z,3.00
2023-05-12T15:36:40.264Z,2.60
2023-05-12T15:41:43.238Z,2.70
2023-05-12T15:46:46.380Z,2.50
2023-05-12T15:51:49.046Z,2.80
2023-05-12T15:56:51.601Z,2.70
2023-05-12T16:01:55.434Z,2.80
2023-05-12T16:06:58.105Z,2.30
2023-05-12T16:12:01.243Z,3.00
2023-05-12T16:17:04.198Z,2.80
2023-05-12T16:22:06.812Z,2.70
2023-05-12T16:27:09.426Z,3.00
2023-05-12T16:32:12.109Z,2.60
2023-05-12T16:37:14.810Z,2.90
2023-05-12T16:42:17.488Z,3.40
2023-05-12T16:47:20.760Z,6.60
2023-05-12T16:52:23.472Z,4.60
2023-05-12T16:57:26.848Z,4.10
2023-05-12T17:02:29.511Z,3.60
2023-05-12T17:07:35.161Z,3.70
2023-05-12T17:12:37.876Z,10.00
2023-05-12T17:17:40.636Z,11.10
2023-05-12T17:22:47.156Z,5.40
2023-05-12T17:27:50.332Z,4.00
2023-05-12T17:32:53.578Z,3.60
2023-05-12T17:37:56.366Z,3.60
2023-05-12T17:42:59.080Z,4.00
2023-05-12T17:48:02.624Z,4.00
2023-05-12T17:53:06.662Z,3.80
2023-05-12T17:58:09.260Z,3.40
2023-05-12T18:03:12.115Z,2.90
2023-05-12T18:08:14.850Z,4.00
2023-05-12T18:13:17.476Z,5.20
2023-05-12T18:18:20.116Z,5.00
2023-05-12T18:23:22.722Z,4.40
2023-05-12T18:28:25.329Z,4.30
2023-05-12T18:33:28.019Z,4.20
2023-05-12T18:38:30.606Z,4.70
2023-05-12T18:43:34.830Z,3.80
2023-05-12T18:48:37.494Z,5.10
2023-05-12T18:53:40.288Z,8.60
2023-05-12T18:58:42.910Z,6.60
2023-05-12T19:03:45.559Z,8.20
2023-05-12T19:08:48.508Z,8.30
2023-05-12T19:13:52.299Z,6.50
2023-05-12T19:18:55.450Z,6.00
2023-05-12T19:23:58.184Z,6.10
2023-05-12T19:29:02.066Z,9.70
2023-05-12T19:34:04.845Z,7.70
2023-05-12T19:39:07.386Z,9.30
2023-05-12T19:44:10.043Z,10.70
2023-05-12T19:49:13.899Z,8.50
2023-05-12T19:54:16.560Z,8.40
2023-05-12T19:59:19.202Z,8.60
2023-05-12T20:04:23.336Z,9.90
2023-05-12T20:09:26.107Z,12.90
2023-05-12T20:14:28.815Z,13.40
2023-05-12T20:19:33.477Z,16.10
2023-05-12T20:24:36.379Z,19.60
2023-05-12T20:29:39.476Z,20.20
2023-05-12T20:34:42.238Z,18.30
2023-05-12T20:39:44.994Z,18.90
2023-05-12T20:44:47.627Z,22.30
2023-05-12T20:49:57.002Z,18.90
2023-05-12T20:54:59.947Z,28.40
2023-05-12T21:00:02.868Z,14.70
2023-05-12T21:05:06.223Z,14.10
2023-05-12T21:10:09.334Z,22.00
2023-05-12T21:15:13.048Z,16.10
2023-05-12T21:20:15.589Z,14.70
2023-05-12T21:25:18.219Z,14.60
2023-05-12T21:30:21.605Z,16.00
2023-05-12T21:35:24.539Z,15.30
2023-05-12T21:40:27.157Z,18.70
2023-05-12T21:45:29.833Z,16.40
2023-05-12T21:50:32.389Z,15.10
2023-05-12T21:55:34.971Z,10.90
2023-05-12T22:00:38.839Z,7.20
2023-05-12T22:05:41.433Z,8.80
2023-05-12T22:10:44.299Z,6.40
2023-05-12T22:15:46.894Z,9.00
2023-05-12T22:20:49.553Z,8.60
2023-05-12T22:25:52.300Z,8.20
2023-05-12T22:30:54.884Z,6.80
2023-05-12T22:36:01.354Z,8.40
2023-05-12T22:41:04.056Z,6.30
2023-05-12T22:46:09.458Z,7.20
2023-05-12T22:51:12.202Z,9.20
2023-05-12T22:56:15.822Z,5.20
2023-05-12T23:01:18.834Z,7.10
2023-05-12T23:06:21.473Z,7.70
2023-05-12T23:11:24.128Z,5.60
2023-05-12T23:16:26.978Z,6.80
2023-05-12T23:21:29.670Z,6.70
2023-05-12T23:26:32.649Z,10.50
2023-05-12T23:31:35.271Z,8.70
2023-05-12T23:36:38.058Z,7.30
2023-05-12T23:41:40.796Z,7.00
2023-05-12T23:46:43.673Z,8.60
2023-05-12T23:51:46.583Z,9.10
2023-05-12T23:56:49.231Z,8.90
